Time;durP1;ratioP1;P1;durP2;ratioP2;P2;SDS_P1;SDS_P2;PMS_P1;PMS_P2;Temp;Humidity;BMP_temperature;BMP_pressure;BME280_temperature;BME280_humidity;BME280_pressure;Samples;Min_cycle;Max_cycle;Signal;HPM_P1;HPM_P2
2022/12/17 13:08:05;;;;;;;0.10;0.10;;;6.30;99.90;4.90;97674.00;;;;5067081;28;20613;-75
2022/12/17 13:10:34;;;;;;;0.10;0.10;;;6.20;99.90;4.50;97685.00;;;;5068583;28;20227;-74
2022/12/17 13:13:17;;;;;;;0.10;0.10;;;5.70;99.90;3.70;97687.00;;;;5071986;28;20202;-75
2022/12/17 13:15:53;;;;;;;0.10;0.10;;;5.00;99.90;3.70;97695.00;;;;5076737;28;20725;-75
2022/12/17 13:18:29;;;;;;;0.10;0.10;;;4.90;99.90;3.80;97701.00;;;;5068767;28;20225;-73
2022/12/17 13:21:04;;;;;;;0.10;0.10;;;4.90;99.90;3.90;97760.00;;;;5068497;28;20695;-74
2022/12/17 13:23:35;;;;;;;0.10;0.10;;;4.80;99.90;4.00;97521.00;;;;5088560;28;20193;-74
2022/12/17 13:26:23;;;;;;;0.00;0.00;;;5.00;99.90;3.70;97525.00;;;;5076326;28;20739;-74
2022/12/17 13:29:11;;;;;;;0.10;0.10;;;4.50;99.90;4.30;97742.00;;;;5081738;28;20259;-74
2022/12/17 13:32:03;;;;;;;0.10;0.10;;;4.70;99.90;3.70;97744.00;;;;5072026;28;20263;-74
2022/12/17 13:34:50;;;;;;;0.10;0.10;;;4.10;99.90;3.10;97805.00;;;;5074523;28;20204;-75
2022/12/17 13:37:31;;;;;;;0.10;0.10;;;3.40;99.90;2.90;97743.00;;;;5073167;28;20700;-74
2022/12/17 13:40:16;;;;;;;0.10;0.10;;;3.30;99.90;3.20;97761.00;;;;5074999;28;20213;-75
2022/12/17 13:42:46;;;;;;;0.10;0.10;;;3.40;99.90;3.40;97758.00;;;;5066322;28;20608;-76
2022/12/17 13:45:17;;;;;;;0.10;0.10;;;3.60;99.90;3.50;97780.00;;;;5066403;28;20198;-75
2022/12/17 13:47:54;;;;;;;0.10;0.10;;;3.50;99.90;3.70;97803.00;;;;5063783;28;20255;-76
2022/12/17 13:50:26;;;;;;;0.10;0.10;;;3.80;99.90;3.00;97777.00;;;;5071069;28;20271;-76
2022/12/17 13:53:12;;;;;;;0.10;0.10;;;3.30;99.90;3.00;97568.00;;;;5071508;28;20207;-75
2022/12/17 13:55:40;;;;;;;0.10;0.10;;;3.40;99.90;3.10;97765.00;;;;5068701;28;20242;-74
2022/12/17 13:58:23;;;;;;;0.10;0.10;;;3.10;99.90;2.90;97793.00;;;;5070820;28;20221;-75
2022/12/17 14:01:05;;;;;;;0.10;0.10;;;3.10;99.90;3.00;97822.00;;;;5062655;28;20198;-74
2022/12/17 14:03:35;;;;;;;0.10;0.10;;;3.20;99.90;1.70;97799.00;;;;5063043;28;20279;-75
2022/12/17 14:06:27;;;;;;;0.10;0.10;;;2.40;99.90;1.20;97792.00;;;;5071916;28;20194;-75
2022/12/17 14:08:58;;;;;;;0.10;0.10;;;2.10;99.90;1.20;97798.00;;;;5065445;28;20224;-75
2022/12/17 14:14:28;;;;;;;0.10;0.10;;;2.00;99.90;1.30;97804.00;;;;5064973;28;20202;-75
2022/12/17 14:16:57;;;;;;;0.10;0.10;;;2.00;99.90;1.10;97809.00;;;;5075257;28;20661;-74
2022/12/17 14:19:29;;;;;;;0.08;0.08;;;1.80;99.90;1.10;97818.00;;;;5082415;28;20287;-74
2022/12/17 14:21:57;;;;;;;0.10;0.10;;;1.80;99.90;0.80;97818.00;;;;5066290;28;20433;-75
2022/12/17 14:24:28;;;;;;;0.10;0.10;;;1.50;99.90;0.10;97496.00;;;;5078220;28;20202;-75
2022/12/17 14:26:59;;;;;;;0.10;0.10;;;1.20;99.90;0.10;97816.00;;;;5076848;28;20213;-75
2022/12/17 14:29:31;;;;;;;0.10;0.10;;;1.20;99.90;-0.10;97822.00;;;;5065439;28;20217;-74
2022/12/17 14:32:02;;;;;;;0.10;0.10;;;1.10;99.90;-0.40;97835.00;;;;5066519;28;20195;-75
2022/12/17 14:34:42;;;;;;;0.10;0.10;;;0.80;99.90;-1.00;97784.00;;;;5078181;28;20211;-76
2022/12/17 14:37:19;;;;;;;0.10;0.10;;;0.40;99.90;-1.40;97838.00;;;;5080145;28;20254;-75
2022/12/17 14:39:49;;;;;;;0.10;0.10;;;0.00;99.90;-1.70;97814.00;;;;5075269;28;20742;-76
2022/12/17 14:42:25;;;;;;;0.10;0.10;;;-0.20;99.90;-2.30;97804.00;;;;5074961;28;20625;-76
2022/12/17 14:44:58;;;;;;;0.10;0.10;;;-0.50;99.90;-2.30;97523.00;;;;5076332;28;20268;-76
2022/12/17 14:47:30;;;;;;;0.20;0.20;;;-0.50;99.90;-2.20;97810.00;;;;5079140;28;20202;-73
2022/12/17 14:50:06;;;;;;;0.10;0.10;;;-0.50;99.90;-2.60;97539.00;;;;5079841;28;20222;-73
2022/12/17 14:52:47;;;;;;;0.10;0.10;;;-0.70;99.90;-2.50;97827.00;;;;5074048;28;20663;-74
2022/12/17 14:55:26;;;;;;;0.20;0.20;;;-0.90;99.90;-2.60;97792.00;;;;5072722;28;20677;-75
2022/12/17 14:58:20;;;;;;;0.10;0.10;;;-1.00;99.90;-2.70;97739.00;;;;5078304;28;20217;-74
2022/12/17 15:00:53;;;;;;;0.10;0.10;;;-1.10;99.90;-2.80;97798.00;;;;5065690;28;20730;-75
2022/12/17 15:03:27;;;;;;;0.20;0.20;;;-1.10;99.90;-2.80;97804.00;;;;5067926;28;20212;-76
2022/12/17 15:06:01;;;;;;;0.10;0.10;;;-1.20;99.90;-2.90;97808.00;;;;5083008;28;20225;-77
2022/12/17 15:08:35;;;;;;;0.15;0.15;;;-1.30;99.90;-3.10;97537.00;;;;5078302;28;20688;-75
2022/12/17 15:11:04;;;;;;;0.10;0.10;;;-1.30;99.90;-2.90;97812.00;;;;5075100;28;20661;-77
2022/12/17 15:13:33;;;;;;;0.20;0.20;;;-1.30;99.90;-3.00;97773.00;;;;5088949;28;20213;-74
2022/12/17 15:16:02;;;;;;;0.10;0.10;;;-1.30;99.90;-3.10;97809.00;;;;5074087;28;20682;-75
2022/12/17 15:18:30;;;;;;;0.20;0.20;;;-1.40;99.90;-3.10;97824.00;;;;5080491;28;20247;-74
2022/12/17 15:20:59;;;;;;;0.20;0.20;;;-1.40;99.90;-3.10;97831.00;;;;5072733;28;20193;-74
2022/12/17 15:23:28;;;;;;;0.10;0.10;;;-1.40;99.90;-3.20;97834.00;;;;5084455;28;20194;-74
2022/12/17 15:25:56;;;;;;;0.20;0.20;;;-1.50;99.90;-3.30;97773.00;;;;5080547;28;20609;-74
2022/12/17 15:28:24;;;;;;;0.10;0.10;;;-1.60;99.90;-3.30;97827.00;;;;5084155;28;20672;-75
2022/12/17 15:30:53;;;;;;;0.10;0.10;;;-1.60;99.90;-3.30;97823.00;;;;5085078;28;20596;-75
2022/12/17 15:33:21;;;;;;;0.20;0.20;;;-1.60;99.90;-3.40;97831.00;;;;5081148;28;20212;-75
2022/12/17 15:35:49;;;;;;;0.10;0.10;;;-1.60;99.90;-3.60;97829.00;;;;5081862;28;20675;-75
2022/12/17 15:38:18;;;;;;;0.20;0.20;;;-1.80;99.90;-3.70;97832.00;;;;5071979;28;20209;-74
2022/12/17 15:40:46;;;;;;;0.20;0.20;;;-2.00;99.90;-3.70;97829.00;;;;5081529;28;20193;-75
2022/12/17 15:43:14;;;;;;;0.20;0.20;;;-2.00;99.90;-3.80;97846.00;;;;5070338;28;20201;-75
2022/12/17 15:45:45;;;;;;;0.20;0.20;;;-2.10;99.90;-3.90;97826.00;;;;5086308;28;20204;-74
2022/12/17 15:48:15;;;;;;;0.20;0.20;;;-2.20;99.90;-3.80;97840.00;;;;5066877;28;20212;-75
2022/12/17 15:50:43;;;;;;;0.20;0.20;;;-2.10;99.90;-3.90;97831.00;;;;5082310;28;20530;-73
2022/12/17 15:53:12;;;;;;;0.20;0.20;;;-2.10;99.90;-3.80;97824.00;;;;5068367;28;20906;-75
2022/12/17 15:55:42;;;;;;;0.10;0.10;;;-2.10;99.90;-3.80;97818.00;;;;5070142;28;20193;-74
2022/12/17 15:58:11;;;;;;;0.20;0.20;;;-2.10;99.90;-3.90;97827.00;;;;5083386;28;20221;-75
2022/12/17 16:00:39;;;;;;;0.20;0.20;;;-2.10;99.90;-4.10;97831.00;;;;5075537;28;20562;-75
2022/12/17 16:03:07;;;;;;;0.20;0.20;;;-2.30;99.90;-4.10;97817.00;;;;5067525;28;20199;-75
2022/12/17 16:05:35;;;;;;;0.13;0.13;;;-2.40;99.90;-4.20;97833.00;;;;5063010;28;20692;-74
2022/12/17 16:08:03;;;;;;;0.15;0.15;;;-2.50;99.90;-4.20;97836.00;;;;5076707;28;20250;-75
2022/12/17 16:10:31;;;;;;;0.20;0.20;;;-2.50;99.90;-4.20;97842.00;;;;5077670;28;20531;-75
2022/12/17 16:13:01;;;;;;;0.20;0.20;;;-2.40;99.90;-4.20;97841.00;;;;5071531;28;20197;-75
2022/12/17 16:15:29;;;;;;;0.15;0.15;;;-2.40;99.90;-4.30;97836.00;;;;5074548;28;20198;-75
2022/12/17 16:17:58;;;;;;;0.10;0.10;;;-2.40;99.90;-4.30;97853.00;;;;5077201;28;20276;-74
2022/12/17 16:20:26;;;;;;;0.20;0.20;;;-2.40;99.90;-4.20;97845.00;;;;5074720;28;20222;-75
2022/12/17 16:22:54;;;;;;;0.20;0.20;;;-2.40;99.90;-4.20;97844.00;;;;5077218;28;20280;-75
2022/12/17 16:25:22;;;;;;;0.20;0.20;;;-2.30;99.90;-4.30;97847.00;;;;5093485;28;20267;-75
2022/12/17 16:27:50;;;;;;;0.20;0.20;;;-2.40;99.90;-4.30;97850.00;;;;5083683;28;20669;-75
2022/12/17 16:30:20;;;;;;;0.20;0.20;;;-2.40;99.90;-4.20;97859.00;;;;5069560;28;20225;-75
2022/12/17 16:32:48;;;;;;;0.20;0.20;;;-2.40;99.90;-4.40;97622.00;;;;5082923;28;20225;-78
2022/12/17 16:35:16;;;;;;;0.20;0.20;;;-2.40;99.90;-4.10;97855.00;;;;5073129;28;20203;-74
2022/12/17 16:37:45;;;;;;;0.20;0.20;;;-2.30;99.90;-4.30;97843.00;;;;5083586;28;20189;-74
2022/12/17 16:40:13;;;;;;;0.20;0.20;;;-2.40;99.90;-4.40;97859.00;;;;5075917;28;20228;-75
2022/12/17 16:42:41;;;;;;;0.20;0.20;;;-2.50;99.90;-4.50;97855.00;;;;5083196;28;20695;-74
2022/12/17 16:45:10;;;;;;;0.20;0.20;;;-2.70;99.90;-4.50;97848.00;;;;5073531;28;20244;-75
2022/12/17 16:47:39;;;;;;;0.20;0.20;;;-2.70;99.90;-4.50;97872.00;;;;5056201;28;20240;-75
2022/12/17 16:50:08;;;;;;;0.20;0.20;;;-2.60;99.90;-4.40;97870.00;;;;5069508;28;20241;-74
2022/12/17 16:52:36;;;;;;;0.20;0.20;;;-2.50;99.90;-4.50;97869.00;;;;5074969;28;20202;-74
2022/12/17 16:55:05;;;;;;;0.20;0.20;;;-2.60;99.90;-4.70;97867.00;;;;5078790;28;20692;-74
2022/12/17 16:57:33;;;;;;;0.20;0.20;;;-2.70;99.90;-4.70;97852.00;;;;5084518;28;20303;-74
2022/12/17 17:00:03;;;;;;;0.20;0.20;;;-2.70;99.90;-4.70;97873.00;;;;5072833;28;20757;-74
2022/12/17 17:02:31;;;;;;;0.10;0.10;;;-2.70;99.90;-4.90;97868.00;;;;5072811;28;20259;-74
2022/12/17 17:05:01;;;;;;;0.20;0.20;;;-2.80;99.90;-5.10;97876.00;;;;5078909;28;20263;-75
2022/12/17 17:07:29;;;;;;;0.20;0.20;;;-3.10;99.90;-5.10;97873.00;;;;5083175;28;20201;-74
2022/12/17 17:09:57;;;;;;;0.20;0.20;;;-3.10;99.90;-5.20;97876.00;;;;5083050;28;20272;-74
2022/12/17 17:12:25;;;;;;;0.20;0.20;;;-3.10;99.90;-5.20;97874.00;;;;5077022;28;20625;-74
2022/12/17 17:14:53;;;;;;;0.20;0.20;;;-3.10;99.90;-5.40;97873.00;;;;5082726;28;20261;-74
2022/12/17 17:17:22;;;;;;;0.20;0.20;;;-3.30;99.90;-5.50;97862.00;;;;5076066;28;20658;-74
2022/12/17 17:20:12;;;;;;;0.20;0.20;;;-3.50;99.90;-5.70;97876.00;;;;5087276;28;20750;-74
2022/12/17 17:22:41;;;;;;;0.20;0.20;;;-3.70;99.90;-5.80;97861.00;;;;5071547;28;20664;-74
2022/12/17 17:25:09;;;;;;;0.20;0.20;;;-3.80;99.90;-5.80;97860.00;;;;5079021;28;20224;-74
2022/12/17 17:27:37;;;;;;;0.20;0.20;;;-3.80;99.90;-5.80;97871.00;;;;5079711;28;20212;-74
2022/12/17 17:30:07;;;;;;;0.30;0.30;;;-3.80;99.90;-5.90;97846.00;;;;5075194;28;20218;-73
2022/12/17 17:32:35;;;;;;;0.20;0.20;;;-3.90;99.90;-5.80;97876.00;;;;5068568;28;20189;-74
2022/12/17 17:35:04;;;;;;;0.20;0.20;;;-3.80;99.90;-5.70;97874.00;;;;5070837;28;20198;-73
2022/12/17 17:37:33;;;;;;;0.28;0.28;;;-3.70;99.90;-5.80;97869.00;;;;5062925;28;20189;-74
2022/12/17 17:40:01;;;;;;;0.30;0.30;;;-3.80;99.90;-6.00;97882.00;;;;5082026;28;20216;-74
2022/12/17 17:42:30;;;;;;;0.20;0.20;;;-4.00;99.90;-6.30;97869.00;;;;5069401;28;20198;-73
2022/12/17 17:44:58;;;;;;;0.20;0.20;;;-4.40;99.90;-6.20;97879.00;;;;5082149;28;20537;-73
2022/12/17 17:47:28;;;;;;;0.30;0.30;;;-4.30;99.90;-6.40;97877.00;;;;5073247;28;20209;-73
2022/12/17 17:49:57;;;;;;;0.30;0.30;;;-4.50;99.90;-6.40;97872.00;;;;5087643;28;20213;-74
2022/12/17 17:52:25;;;;;;;0.30;0.30;;;-4.40;99.90;-6.40;97869.00;;;;5069829;28;20210;-74
2022/12/17 17:54:54;;;;;;;0.28;0.28;;;-4.40;99.90;-6.40;97888.00;;;;5077535;28;20248;-74
2022/12/17 17:57:22;;;;;;;0.20;0.20;;;-4.30;99.90;-6.40;97887.00;;;;5073485;28;20206;-74
2022/12/17 17:59:50;;;;;;;0.20;0.20;;;-4.30;99.90;-6.40;97875.00;;;;5076020;28;20216;-74
2022/12/17 18:02:18;;;;;;;0.20;0.20;;;-4.40;99.90;-6.50;97882.00;;;;5074854;28;20194;-75
2022/12/17 18:04:47;;;;;;;0.20;0.20;;;-4.40;99.90;-6.60;97871.00;;;;5081923;28;20228;-75
2022/12/17 18:07:15;;;;;;;0.30;0.30;;;-4.60;99.90;-6.50;97882.00;;;;5073915;28;20194;-74
2022/12/17 18:09:55;;;;;;;0.20;0.20;;;-4.50;99.90;-6.40;97871.00;;;;5087248;28;21007;-73
2022/12/17 18:15:13;;;;;;;0.30;0.30;;;-4.50;99.90;-6.70;97886.00;;;;5072720;28;20194;-75
2022/12/17 18:17:46;;;;;;;0.20;0.20;;;-4.60;99.90;-6.70;97935.00;;;;5066788;28;20190;-73
2022/12/17 18:20:14;;;;;;;0.20;0.20;;;-4.60;99.90;-6.80;97892.00;;;;5066353;28;20217;-74
2022/12/17 18:22:44;;;;;;;0.20;0.20;;;-4.70;99.90;-6.90;97885.00;;;;5082494;28;20225;-74
2022/12/17 18:25:15;;;;;;;0.20;0.20;;;-4.90;99.90;-6.80;97900.00;;;;5073752;28;20254;-74
2022/12/17 18:27:43;;;;;;;0.20;0.20;;;-4.80;99.90;-6.80;97898.00;;;;5073538;28;20196;-74
2022/12/17 18:30:15;;;;;;;0.20;0.20;;;-4.70;99.90;-7.00;97905.00;;;;5085192;28;20703;-74
2022/12/17 18:32:43;;;;;;;0.20;0.20;;;-4.90;99.90;-7.10;97912.00;;;;5067309;28;20223;-73
2022/12/17 18:35:11;;;;;;;0.30;0.30;;;-4.90;99.90;-7.10;97898.00;;;;5063097;28;20281;-75
2022/12/17 18:37:39;;;;;;;0.28;0.28;;;-4.90;99.90;-7.00;97911.00;;;;5067720;28;20326;-74
2022/12/17 18:40:09;;;;;;;0.20;0.20;;;-4.90;99.90;-7.10;97913.00;;;;5065403;28;20267;-74
2022/12/17 18:45:24;;;;;;;0.20;0.20;;;-5.00;99.90;-7.20;97920.00;;;;5065280;28;20253;-73
2022/12/17 18:47:52;;;;;;;0.30;0.30;;;-5.10;99.90;-7.30;97918.00;;;;5065385;28;20194;-73
2022/12/17 18:50:20;;;;;;;0.22;0.22;;;-5.10;99.90;-7.30;97901.00;;;;5072987;28;20701;-74
2022/12/17 18:52:48;;;;;;;0.20;0.20;;;-5.10;99.90;-7.30;97910.00;;;;5062135;28;20625;-74
2022/12/17 18:55:16;;;;;;;0.20;0.20;;;-5.10;99.90;-7.40;97873.00;;;;5060833;28;20707;-73
2022/12/17 18:57:46;;;;;;;0.20;0.20;;;-5.20;99.90;-7.40;97911.00;;;;5061207;28;20197;-73
2022/12/17 19:00:15;;;;;;;0.30;0.30;;;-5.20;99.90;-7.40;97927.00;;;;5059861;28;20589;-73
2022/12/17 19:02:43;;;;;;;0.30;0.30;;;-5.30;99.90;-7.40;97888.00;;;;5058104;28;20198;-73
2022/12/17 19:05:12;;;;;;;0.20;0.20;;;-5.20;99.90;-7.50;97882.00;;;;5069950;28;20566;-74
2022/12/17 19:07:40;;;;;;;0.30;0.30;;;-5.40;99.90;-7.40;97891.00;;;;5066429;28;20198;-73
2022/12/17 19:10:09;;;;;;;0.20;0.20;;;-5.20;99.90;-7.50;97897.00;;;;5059836;28;20217;-74
2022/12/17 19:12:37;;;;;;;0.30;0.30;;;-5.30;99.90;-7.60;97903.00;;;;5071255;28;20189;-74
2022/12/17 19:15:08;;;;;;;0.20;0.20;;;-5.50;99.90;-7.70;97908.00;;;;5072444;28;20194;-74
2022/12/17 19:17:36;;;;;;;0.20;0.20;;;-5.50;99.90;-7.80;97910.00;;;;5077029;28;20615;-74
2022/12/17 19:20:06;;;;;;;0.20;0.20;;;-5.60;99.90;-7.80;97919.00;;;;5079707;28;20230;-73
2022/12/17 19:22:34;;;;;;;0.20;0.20;;;-5.60;99.90;-7.80;97926.00;;;;5068728;28;20197;-74
2022/12/17 19:25:02;;;;;;;0.30;0.30;;;-5.60;99.90;-7.80;97920.00;;;;5071724;28;20190;-74
2022/12/17 19:27:30;;;;;;;0.20;0.20;;;-5.60;99.90;-7.90;97931.00;;;;5077918;28;20193;-74
2022/12/17 19:29:58;;;;;;;0.30;0.30;;;-5.80;99.90;-7.90;97834.00;;;;5079749;28;20244;-74
2022/12/17 19:32:28;;;;;;;0.20;0.20;;;-5.80;99.90;-8.00;97933.00;;;;5074186;28;20669;-74
2022/12/17 19:34:56;;;;;;;0.20;0.20;;;-5.90;99.90;-8.10;97953.00;;;;5072663;28;20198;-74
2022/12/17 19:37:24;;;;;;;0.30;0.30;;;-6.00;99.90;-8.10;97945.00;;;;5071487;28;20202;-74
2022/12/17 19:39:52;;;;;;;0.20;0.20;;;-6.00;99.90;-8.20;97948.00;;;;5081452;28;20235;-74
2022/12/17 19:42:26;;;;;;;0.30;0.30;;;-6.10;99.90;-8.30;97939.00;;;;5073703;28;20649;-74
2022/12/17 19:45:04;;;;;;;0.20;0.20;;;-6.20;99.90;-8.30;97931.00;;;;5069201;28;20243;-74
2022/12/17 19:47:34;;;;;;;0.28;0.28;;;-6.20;99.90;-8.30;97957.00;;;;5075121;28;20673;-74
2022/12/17 19:50:02;;;;;;;0.20;0.20;;;-6.30;99.90;-8.30;97962.00;;;;5069354;28;20705;-75
2022/12/17 19:52:30;;;;;;;0.30;0.30;;;-6.20;99.90;-8.20;97965.00;;;;5081155;28;20268;-75
2022/12/17 19:54:58;;;;;;;0.30;0.30;;;-6.20;99.90;-8.30;97965.00;;;;5074614;28;20193;-75
2022/12/17 19:57:26;;;;;;;0.20;0.20;;;-6.20;99.90;-8.40;97947.00;;;;5065768;28;20205;-74
2022/12/17 19:59:54;;;;;;;0.25;0.25;;;-6.30;99.90;-8.40;97946.00;;;;5057695;28;20758;-74
2022/12/17 20:02:22;;;;;;;0.20;0.20;;;-6.20;99.90;-8.40;97960.00;;;;5055829;28;20218;-74
2022/12/17 20:04:59;;;;;;;0.20;0.20;;;-6.20;99.90;-8.40;97968.00;;;;5057968;28;20201;-75
2022/12/17 20:07:27;;;;;;;0.20;0.20;;;-6.30;99.90;-8.50;97968.00;;;;5053742;28;20194;-75
2022/12/17 20:09:55;;;;;;;0.20;0.20;;;-6.30;99.90;-8.50;97950.00;;;;5054300;28;20251;-75
2022/12/17 20:12:23;;;;;;;0.30;0.30;;;-6.40;99.90;-8.50;97964.00;;;;5053157;28;20198;-75
2022/12/17 20:14:51;;;;;;;0.20;0.20;;;-6.40;99.90;-8.40;97960.00;;;;5059200;28;20591;-75
2022/12/17 20:17:20;;;;;;;0.25;0.25;;;-6.30;99.90;-8.30;97978.00;;;;5055246;28;20225;-74
2022/12/17 20:19:51;;;;;;;0.25;0.25;;;-6.30;99.90;-8.40;97977.00;;;;5058957;28;20612;-75
2022/12/17 20:22:22;;;;;;;0.25;0.25;;;-6.30;99.90;-8.60;97959.00;;;;5053616;28;20648;-75
2022/12/17 20:24:51;;;;;;;0.20;0.20;;;-6.30;99.90;-8.50;97976.00;;;;5058186;28;20286;-74
2022/12/17 20:27:21;;;;;;;0.20;0.20;;;-6.30;99.90;-8.50;97971.00;;;;5090081;28;20210;-75
2022/12/17 20:29:49;;;;;;;0.20;0.20;;;-6.30;99.90;-8.40;97980.00;;;;5078284;28;20220;-77
2022/12/17 20:32:19;;;;;;;0.30;0.30;;;-6.20;99.90;-8.60;97959.00;;;;5072235;28;20198;-76
2022/12/17 20:34:48;;;;;;;0.30;0.30;;;-6.40;99.90;-8.70;97972.00;;;;5072260;28;20205;-76
2022/12/17 20:37:16;;;;;;;0.20;0.20;;;-6.50;99.90;-8.70;97970.00;;;;5071818;28;20190;-76
2022/12/17 20:39:45;;;;;;;0.30;0.30;;;-6.60;99.90;-8.60;97974.00;;;;5065452;28;20265;-77
2022/12/17 20:42:13;;;;;;;0.30;0.30;;;-6.50;99.90;-8.70;97961.00;;;;5075776;28;20222;-76
2022/12/17 20:44:41;;;;;;;0.20;0.20;;;-6.60;99.90;-8.70;97972.00;;;;5061040;28;20189;-75
2022/12/17 20:47:10;;;;;;;0.20;0.20;;;-6.50;99.90;-8.70;97980.00;;;;5057554;28;20203;-76
2022/12/17 20:49:39;;;;;;;0.20;0.20;;;-6.60;99.90;-8.70;97977.00;;;;5068160;28;20599;-76
2022/12/17 20:52:07;;;;;;;0.20;0.20;;;-6.60;99.90;-8.70;97971.00;;;;5056101;28;20268;-76
2022/12/17 20:54:35;;;;;;;0.20;0.20;;;-6.50;99.90;-8.70;97988.00;;;;5059258;28;20252;-76
2022/12/17 20:57:04;;;;;;;0.20;0.20;;;-6.60;99.90;-8.90;97958.00;;;;5060733;28;20673;-76
2022/12/17 20:59:32;;;;;;;0.20;0.20;;;-6.60;99.90;-8.90;97977.00;;;;5063559;28;20222;-76
2022/12/17 21:02:00;;;;;;;0.20;0.20;;;-6.70;99.90;-8.90;97967.00;;;;5057048;28;20226;-76
2022/12/17 21:04:29;;;;;;;0.22;0.22;;;-6.70;99.90;-9.00;97968.00;;;;5059718;28;20199;-76
2022/12/17 21:06:57;;;;;;;0.20;0.20;;;-6.80;99.90;-9.00;97972.00;;;;5061181;28;20601;-76
2022/12/17 21:09:25;;;;;;;0.30;0.30;;;-6.80;99.90;-9.10;97952.00;;;;5063839;28;20272;-77
2022/12/17 21:11:53;;;;;;;0.20;0.20;;;-6.80;99.90;-9.10;97981.00;;;;5061143;28;20252;-76
2022/12/17 21:14:22;;;;;;;0.30;0.30;;;-6.80;99.90;-9.20;97990.00;;;;5063478;28;20260;-76
2022/12/17 21:16:50;;;;;;;0.30;0.30;;;-6.90;99.90;-9.50;97971.00;;;;5076075;28;20716;-75
2022/12/17 21:19:19;;;;;;;0.30;0.30;;;-7.10;99.90;-9.50;97987.00;;;;5087098;28;20208;-76
2022/12/17 21:21:48;;;;;;;0.30;0.30;;;-7.20;99.90;-9.50;97983.00;;;;5082724;28;20255;-75
2022/12/17 21:24:16;;;;;;;0.30;0.30;;;-7.30;99.90;-9.70;97976.00;;;;5071764;28;20193;-76
2022/12/17 21:26:46;;;;;;;0.30;0.30;;;-7.40;99.90;-9.70;97928.00;;;;5074961;28;20597;-76
2022/12/17 21:29:17;;;;;;;0.30;0.30;;;-7.50;99.90;-9.70;97967.00;;;;5077489;28;20217;-76
2022/12/17 21:31:49;;;;;;;0.30;0.30;;;-7.50;99.90;-9.50;97989.00;;;;5069829;28;20277;-75
2022/12/17 21:34:22;;;;;;;0.20;0.20;;;-7.30;99.90;-9.50;97935.00;;;;5088053;28;20641;-76
2022/12/17 21:36:51;;;;;;;0.20;0.20;;;-7.30;99.90;-9.50;98035.00;;;;5083128;28;20201;-74
2022/12/17 21:39:20;;;;;;;0.20;0.20;;;-7.20;99.90;-9.60;98006.00;;;;5079936;28;20214;-75
2022/12/17 21:44:31;;;;;;;0.30;0.30;;;-7.40;99.90;-9.70;97990.00;;;;5077192;28;20205;-75
2022/12/17 21:47:01;;;;;;;0.20;0.20;;;-7.40;99.90;-9.70;97985.00;;;;5080953;28;20687;-75
2022/12/17 21:49:29;;;;;;;0.20;0.20;;;-7.40;99.90;-9.70;97993.00;;;;5082104;28;20585;-76
2022/12/17 21:51:58;;;;;;;0.30;0.30;;;-7.40;99.90;-9.70;97989.00;;;;5083023;28;20288;-75
2022/12/17 21:54:27;;;;;;;0.30;0.30;;;-7.50;99.90;-9.70;97981.00;;;;5081953;28;20686;-75
2022/12/17 21:56:55;;;;;;;0.30;0.30;;;-7.50;99.90;-9.70;98001.00;;;;5077725;28;20193;-75
2022/12/17 21:59:23;;;;;;;0.20;0.20;;;-7.60;99.90;-9.70;97999.00;;;;5082336;28;20278;-75
2022/12/17 22:01:52;;;;;;;0.30;0.30;;;-7.60;99.90;-9.70;97992.00;;;;5068533;28;20593;-76
2022/12/17 22:04:21;;;;;;;0.30;0.30;;;-7.60;99.90;-9.70;97997.00;;;;5079027;28;20200;-75
2022/12/17 22:06:50;;;;;;;0.30;0.30;;;-7.70;99.90;-9.70;98001.00;;;;5080500;28;20276;-75
2022/12/17 22:09:38;;;;;;;0.20;0.20;;;-7.60;99.90;-9.70;98002.00;;;;5083298;28;20263;-76
2022/12/17 22:15:12;;;;;;;0.30;0.30;;;-7.70;99.90;-9.90;97998.00;;;;5072666;28;20198;-76
2022/12/17 22:17:41;;;;;;;0.30;0.30;;;-7.70;99.90;-9.90;98022.00;;;;5081731;28;20284;-75
2022/12/17 22:20:12;;;;;;;0.30;0.30;;;-7.70;99.90;-9.80;98011.00;;;;5085640;28;20645;-76
2022/12/17 22:22:40;;;;;;;0.30;0.30;;;-7.70;99.90;-9.80;98012.00;;;;5079282;28;20212;-76
2022/12/17 22:25:10;;;;;;;0.30;0.30;;;-7.70;99.90;-9.90;98021.00;;;;5081323;28;20193;-76
2022/12/17 22:27:39;;;;;;;0.28;0.28;;;-7.70;99.90;-10.00;98002.00;;;;5072963;28;20207;-76
2022/12/17 22:32:59;;;;;;;0.30;0.30;;;-7.90;99.90;-10.10;97935.00;;;;5077917;28;20189;-73
2022/12/17 22:35:37;;;;;;;0.20;0.20;;;-8.00;99.90;-10.10;98017.00;;;;5070494;28;20558;-72
2022/12/17 22:38:25;;;;;;;0.20;0.20;;;-8.00;99.90;-10.10;98010.00;;;;5080550;28;20271;-72
2022/12/17 22:43:28;;;;;;;0.30;0.30;;;-8.00;99.90;-10.10;98014.00;;;;5078116;28;20255;-72
2022/12/17 22:44:21;;;;;;;0.30;0.30;;;-7.90;99.90;-10.00;98033.00;;;;5065598;28;20304;-71
2022/12/17 22:47:09;;;;;;;0.30;0.30;;;-7.90;99.90;-10.10;98008.00;;;;5079080;28;20598;-72
2022/12/17 22:49:40;;;;;;;0.30;0.30;;;-8.00;99.90;-10.10;98022.00;;;;5082611;28;20223;-72
2022/12/17 22:52:12;;;;;;;0.30;0.30;;;-8.00;99.90;-10.00;98030.00;;;;5067129;28;20222;-72
2022/12/17 22:54:42;;;;;;;0.30;0.30;;;-7.80;99.90;-10.10;98042.00;;;;5067088;28;20190;-71
2022/12/17 22:57:10;;;;;;;0.30;0.30;;;-7.80;99.90;-10.30;98030.00;;;;5071592;28;20194;-74
2022/12/17 22:59:59;;;;;;;0.30;0.30;;;-8.00;99.90;-10.30;98024.00;;;;5062888;28;20217;-75
2022/12/17 23:02:27;;;;;;;0.30;0.30;;;-7.90;99.90;-10.30;98026.00;;;;5069076;28;20640;-73
2022/12/17 23:04:55;;;;;;;0.30;0.30;;;-8.00;99.90;-10.40;98032.00;;;;5078437;28;20243;-72
2022/12/17 23:07:24;;;;;;;0.30;0.30;;;-8.10;99.90;-10.40;98055.00;;;;5079814;28;20197;-73
2022/12/17 23:09:58;;;;;;;0.30;0.30;;;-8.20;99.90;-10.40;98040.00;;;;5075801;28;20529;-73
2022/12/17 23:15:12;;;;;;;0.30;0.30;;;-8.20;99.90;-10.20;98035.00;;;;5066367;28;20205;-72
2022/12/17 23:17:40;;;;;;;0.30;0.30;;;-8.00;99.90;-10.20;98032.00;;;;5080335;28;20205;-72
2022/12/17 23:20:10;;;;;;;0.28;0.28;;;-7.90;99.90;-10.30;98029.00;;;;5082094;28;20615;-72
2022/12/17 23:22:40;;;;;;;0.30;0.30;;;-8.00;99.90;-10.30;98036.00;;;;5079457;28;20213;-71
2022/12/17 23:25:09;;;;;;;0.30;0.30;;;-7.90;99.90;-10.30;98038.00;;;;5083908;28;20660;-72
2022/12/17 23:27:38;;;;;;;0.30;0.30;;;-7.90;99.90;-10.50;98055.00;;;;5076832;28;20656;-72
2022/12/17 23:30:09;;;;;;;0.30;0.30;;;-8.10;99.90;-10.50;98012.00;;;;5078458;28;20221;-73
2022/12/17 23:32:37;;;;;;;0.30;0.30;;;-8.10;99.90;-10.50;98078.00;;;;5082325;28;20231;-72
2022/12/17 23:35:07;;;;;;;0.30;0.30;;;-8.10;99.90;-10.60;98003.00;;;;5067507;28;20202;-72
2022/12/17 23:37:36;;;;;;;0.30;0.30;;;-8.20;99.90;-10.60;98043.00;;;;5068466;28;20296;-73
2022/12/17 23:40:11;;;;;;;0.30;0.30;;;-8.20;99.90;-10.50;98044.00;;;;5078120;28;20218;-72
2022/12/17 23:42:40;;;;;;;0.30;0.30;;;-8.20;99.90;-10.60;98045.00;;;;5074893;28;20266;-74
2022/12/17 23:45:10;;;;;;;0.30;0.30;;;-8.20;99.90;-10.80;98035.00;;;;5079881;28;20194;-74
2022/12/17 23:47:41;;;;;;;0.30;0.30;;;-8.30;99.90;-10.80;98007.00;;;;5081650;28;20197;-74
2022/12/17 23:50:11;;;;;;;0.30;0.30;;;-8.40;99.90;-10.70;98033.00;;;;5082635;28;20217;-72
2022/12/17 23:52:39;;;;;;;0.30;0.30;;;-8.40;99.90;-10.90;98033.00;;;;5074850;28;20329;-73
2022/12/17 23:55:10;;;;;;;0.30;0.30;;;-8.60;99.90;-11.10;98035.00;;;;5084617;28;20196;-73
2022/12/17 23:57:38;;;;;;;0.20;0.20;;;-8.80;99.90;-11.10;98026.00;;;;5079314;28;20216;-73
